sensor_id;sensor_type;location;lat;lon;timestamp;pressure;altitude;pressure_sealevel;temperature;humidity
35952;BME280;22035;51.406;16.194;2023-01-31T00:00:46;99436.31;;;31.59;22.43
35952;BME280;22035;51.406;16.194;2023-01-31T00:03:12;99440.87;;;31.51;22.57
35952;BME280;22035;51.406;16.194;2023-01-31T00:05:38;99444.67;;;31.50;22.57
35952;BME280;22035;51.406;16.194;2023-01-31T00:08:04;99444.94;;;31.46;22.65
35952;BME280;22035;51.406;16.194;2023-01-31T00:10:30;99444.08;;;31.52;22.55
35952;BME280;22035;51.406;16.194;2023-01-31T00:12:55;99450.59;;;31.40;22.80
35952;BME280;22035;51.406;16.194;2023-01-31T00:15:21;99450.53;;;31.32;22.81
35952;BME280;22035;51.406;16.194;2023-01-31T00:17:47;99451.70;;;31.40;22.84
35952;BME280;22035;51.406;16.194;2023-01-31T00:20:13;99462.40;;;31.32;22.91
35952;BME280;22035;51.406;16.194;2023-01-31T00:22:38;99459.19;;;31.41;22.78
35952;BME280;22035;51.406;16.194;2023-01-31T00:25:05;99465.27;;;31.39;22.74
35952;BME280;22035;51.406;16.194;2023-01-31T00:27:31;99469.74;;;31.40;22.67
35952;BME280;22035;51.406;16.194;2023-01-31T00:29:57;99468.23;;;31.43;22.60
35952;BME280;22035;51.406;16.194;2023-01-31T00:32:23;99472.62;;;31.34;22.90
35952;BME280;22035;51.406;16.194;2023-01-31T00:34:48;99483.24;;;31.38;22.72
35952;BME280;22035;51.406;16.194;2023-01-31T00:37:14;99487.35;;;31.40;22.64
35952;BME280;22035;51.406;16.194;2023-01-31T00:39:40;99486.27;;;31.43;22.69
35952;BME280;22035;51.406;16.194;2023-01-31T00:42:06;99490.97;;;31.36;22.81
35952;BME280;22035;51.406;16.194;2023-01-31T00:44:32;99491.99;;;31.38;22.68
35952;BME280;22035;51.406;16.194;2023-01-31T00:46:57;99493.77;;;31.29;22.75
35952;BME280;22035;51.406;16.194;2023-01-31T00:49:23;99501.28;;;31.29;22.72
35952;BME280;22035;51.406;16.194;2023-01-31T00:51:49;99497.98;;;31.31;22.70
35952;BME280;22035;51.406;16.194;2023-01-31T00:54:14;99506.77;;;31.23;23.01
35952;BME280;22035;51.406;16.194;2023-01-31T00:56:40;99517.30;;;31.25;22.85
35952;BME280;22035;51.406;16.194;2023-01-31T00:59:06;99522.62;;;31.10;23.13
35952;BME280;22035;51.406;16.194;2023-01-31T01:01:32;99522.73;;;31.13;22.97
35952;BME280;22035;51.406;16.194;2023-01-31T01:03:57;99521.31;;;31.04;23.17
35952;BME280;22035;51.406;16.194;2023-01-31T01:06:23;99520.81;;;31.11;22.95
35952;BME280;22035;51.406;16.194;2023-01-31T01:08:49;99521.56;;;31.01;23.11
35952;BME280;22035;51.406;16.194;2023-01-31T01:11:17;99523.30;;;31.02;23.08
35952;BME280;22035;51.406;16.194;2023-01-31T01:13:44;99526.96;;;31.15;23.08
35952;BME280;22035;51.406;16.194;2023-01-31T01:16:13;99530.75;;;31.15;23.18
35952;BME280;22035;51.406;16.194;2023-01-31T01:18:39;99546.84;;;31.21;23.13
35952;BME280;22035;51.406;16.194;2023-01-31T01:21:06;99543.56;;;31.17;23.11
35952;BME280;22035;51.406;16.194;2023-01-31T01:23:32;99545.32;;;31.16;23.17
35952;BME280;22035;51.406;16.194;2023-01-31T01:25:58;99547.97;;;31.18;23.03
35952;BME280;22035;51.406;16.194;2023-01-31T01:28:24;99548.96;;;31.05;23.18
35952;BME280;22035;51.406;16.194;2023-01-31T01:30:49;99553.20;;;31.12;23.11
35952;BME280;22035;51.406;16.194;2023-01-31T01:33:15;99565.48;;;30.94;23.23
35952;BME280;22035;51.406;16.194;2023-01-31T01:35:41;99563.77;;;30.99;23.18
35952;BME280;22035;51.406;16.194;2023-01-31T01:38:06;99564.75;;;31.11;23.07
35952;BME280;22035;51.406;16.194;2023-01-31T01:40:34;99569.44;;;31.01;23.19
35952;BME280;22035;51.406;16.194;2023-01-31T01:43:00;99567.24;;;30.96;23.22
35952;BME280;22035;51.406;16.194;2023-01-31T01:45:26;99571.66;;;30.91;23.27
35952;BME280;22035;51.406;16.194;2023-01-31T01:47:54;99576.44;;;30.98;23.18
35952;BME280;22035;51.406;16.194;2023-01-31T01:50:24;99577.23;;;30.97;23.30
35952;BME280;22035;51.406;16.194;2023-01-31T01:52:55;99582.65;;;30.91;23.12
35952;BME280;22035;51.406;16.194;2023-01-31T01:55:27;99589.66;;;30.92;23.15
35952;BME280;22035;51.406;16.194;2023-01-31T01:57:57;99581.57;;;30.85;23.13
35952;BME280;22035;51.406;16.194;2023-01-31T02:00:28;99590.24;;;30.87;23.11
35952;BME280;22035;51.406;16.194;2023-01-31T02:02:58;99586.59;;;31.00;23.03
35952;BME280;22035;51.406;16.194;2023-01-31T02:05:28;99593.25;;;30.95;23.50
35952;BME280;22035;51.406;16.194;2023-01-31T02:07:55;99600.16;;;30.93;23.54
35952;BME280;22035;51.406;16.194;2023-01-31T02:10:25;99588.38;;;30.79;23.46
35952;BME280;22035;51.406;16.194;2023-01-31T02:12:52;99595.25;;;30.84;23.51
35952;BME280;22035;51.406;16.194;2023-01-31T02:15:18;99604.83;;;30.68;23.58
35952;BME280;22035;51.406;16.194;2023-01-31T02:17:44;99603.33;;;30.75;23.54
35952;BME280;22035;51.406;16.194;2023-01-31T02:20:20;99610.25;;;30.74;23.35
35952;BME280;22035;51.406;16.194;2023-01-31T02:23:02;99613.14;;;30.69;23.66
35952;BME280;22035;51.406;16.194;2023-01-31T02:25:49;99617.61;;;30.45;24.09
35952;BME280;22035;51.406;16.194;2023-01-31T02:28:37;99616.50;;;30.62;23.55
35952;BME280;22035;51.406;16.194;2023-01-31T02:33:48;99629.29;;;30.79;23.32
35952;BME280;22035;51.406;16.194;2023-01-31T02:36:23;99635.31;;;30.78;23.56
35952;BME280;22035;51.406;16.194;2023-01-31T02:39:02;99633.38;;;30.81;23.50
35952;BME280;22035;51.406;16.194;2023-01-31T02:41:36;99644.76;;;30.86;23.16
35952;BME280;22035;51.406;16.194;2023-01-31T02:44:12;99648.87;;;30.82;23.20
35952;BME280;22035;51.406;16.194;2023-01-31T02:46:46;99648.67;;;30.74;23.31
35952;BME280;22035;51.406;16.194;2023-01-31T02:49:19;99660.21;;;30.57;23.26
35952;BME280;22035;51.406;16.194;2023-01-31T02:51:48;99664.38;;;30.74;23.50
35952;BME280;22035;51.406;16.194;2023-01-31T02:54:19;99675.67;;;30.70;23.35
35952;BME280;22035;51.406;16.194;2023-01-31T02:56:46;99676.66;;;30.77;23.47
35952;BME280;22035;51.406;16.194;2023-01-31T02:59:17;99679.56;;;30.64;23.41
35952;BME280;22035;51.406;16.194;2023-01-31T03:01:47;99675.54;;;30.72;23.51
35952;BME280;22035;51.406;16.194;2023-01-31T03:04:15;99675.54;;;30.67;23.41
35952;BME280;22035;51.406;16.194;2023-01-31T03:06:53;99682.49;;;30.69;23.27
35952;BME280;22035;51.406;16.194;2023-01-31T03:09:24;99688.98;;;30.53;23.50
35952;BME280;22035;51.406;16.194;2023-01-31T03:12:07;99701.08;;;30.44;23.67
35952;BME280;22035;51.406;16.194;2023-01-31T03:14:43;99688.62;;;30.49;23.45
35952;BME280;22035;51.406;16.194;2023-01-31T03:17:15;99698.30;;;30.51;23.41
35952;BME280;22035;51.406;16.194;2023-01-31T03:19:49;99704.89;;;30.57;23.30
35952;BME280;22035;51.406;16.194;2023-01-31T03:22:25;99710.47;;;30.53;23.26
35952;BME280;22035;51.406;16.194;2023-01-31T03:24:52;99709.62;;;30.41;23.36
35952;BME280;22035;51.406;16.194;2023-01-31T03:27:19;99710.95;;;30.46;23.23
35952;BME280;22035;51.406;16.194;2023-01-31T03:29:46;99712.15;;;30.36;23.33
35952;BME280;22035;51.406;16.194;2023-01-31T03:32:17;99712.99;;;30.37;23.39
35952;BME280;22035;51.406;16.194;2023-01-31T03:34:45;99722.76;;;30.35;23.26
35952;BME280;22035;51.406;16.194;2023-01-31T03:37:16;99727.33;;;30.37;23.28
35952;BME280;22035;51.406;16.194;2023-01-31T03:39:52;99728.29;;;30.41;23.20
35952;BME280;22035;51.406;16.194;2023-01-31T03:42:24;99724.84;;;30.35;23.32
35952;BME280;22035;51.406;16.194;2023-01-31T03:44:58;99726.94;;;30.30;23.29
35952;BME280;22035;51.406;16.194;2023-01-31T03:47:30;99732.26;;;30.25;23.35
35952;BME280;22035;51.406;16.194;2023-01-31T03:50:03;99736.79;;;30.29;23.30
35952;BME280;22035;51.406;16.194;2023-01-31T03:52:34;99740.37;;;30.26;23.26
35952;BME280;22035;51.406;16.194;2023-01-31T03:55:03;99742.11;;;30.21;23.31
35952;BME280;22035;51.406;16.194;2023-01-31T03:57:34;99749.70;;;30.27;23.24
35952;BME280;22035;51.406;16.194;2023-01-31T04:00:05;99759.76;;;30.27;23.18
35952;BME280;22035;51.406;16.194;2023-01-31T04:02:35;99758.64;;;30.23;23.20
35952;BME280;22035;51.406;16.194;2023-01-31T04:05:05;99758.48;;;30.29;23.21
35952;BME280;22035;51.406;16.194;2023-01-31T04:07:32;99764.97;;;30.36;23.04
35952;BME280;22035;51.406;16.194;2023-01-31T04:09:58;99764.25;;;30.18;23.22
35952;BME280;22035;51.406;16.194;2023-01-31T04:12:24;99772.76;;;30.16;23.18
35952;BME280;22035;51.406;16.194;2023-01-31T04:14:50;99776.29;;;30.26;23.03
35952;BME280;22035;51.406;16.194;2023-01-31T04:17:15;99775.81;;;30.18;23.13
35952;BME280;22035;51.406;16.194;2023-01-31T04:19:41;99780.74;;;30.30;23.01
35952;BME280;22035;51.406;16.194;2023-01-31T04:22:07;99783.36;;;30.15;23.08
35952;BME280;22035;51.406;16.194;2023-01-31T04:24:33;99786.01;;;30.23;22.99
35952;BME280;22035;51.406;16.194;2023-01-31T04:26:58;99789.01;;;30.24;22.86
35952;BME280;22035;51.406;16.194;2023-01-31T04:29:24;99796.19;;;30.21;22.97
35952;BME280;22035;51.406;16.194;2023-01-31T04:31:50;99792.25;;;30.14;23.00
35952;BME280;22035;51.406;16.194;2023-01-31T04:34:16;99788.34;;;30.14;23.07
35952;BME280;22035;51.406;16.194;2023-01-31T04:36:41;99798.35;;;30.11;23.21
35952;BME280;22035;51.406;16.194;2023-01-31T04:39:08;99791.92;;;30.18;23.06
35952;BME280;22035;51.406;16.194;2023-01-31T04:41:34;99800.85;;;30.16;23.27
35952;BME280;22035;51.406;16.194;2023-01-31T04:44:00;99804.20;;;30.19;23.30
35952;BME280;22035;51.406;16.194;2023-01-31T04:46:26;99805.88;;;30.22;23.28
35952;BME280;22035;51.406;16.194;2023-01-31T04:48:51;99807.84;;;30.19;23.24
35952;BME280;22035;51.406;16.194;2023-01-31T04:51:17;99811.91;;;30.14;23.36
35952;BME280;22035;51.406;16.194;2023-01-31T04:53:43;99808.91;;;30.20;23.21
35952;BME280;22035;51.406;16.194;2023-01-31T04:56:09;99807.65;;;30.18;23.25
35952;BME280;22035;51.406;16.194;2023-01-31T04:58:35;99820.25;;;30.23;23.16
35952;BME280;22035;51.406;16.194;2023-01-31T05:01:01;99827.37;;;30.25;23.19
35952;BME280;22035;51.406;16.194;2023-01-31T05:03:27;99821.58;;;30.16;23.32
35952;BME280;22035;51.406;16.194;2023-01-31T05:05:52;99829.03;;;30.25;23.11
35952;BME280;22035;51.406;16.194;2023-01-31T05:08:18;99831.69;;;30.17;23.12
35952;BME280;22035;51.406;16.194;2023-01-31T05:10:44;99834.64;;;30.24;23.21
35952;BME280;22035;51.406;16.194;2023-01-31T05:13:10;99836.59;;;30.30;23.17
35952;BME280;22035;51.406;16.194;2023-01-31T05:15:36;99842.17;;;30.11;23.16
35952;BME280;22035;51.406;16.194;2023-01-31T05:18:01;99846.53;;;30.25;22.90
35952;BME280;22035;51.406;16.194;2023-01-31T05:20:28;99845.28;;;30.28;22.71
35952;BME280;22035;51.406;16.194;2023-01-31T05:22:54;99849.35;;;30.33;22.22
35952;BME280;22035;51.406;16.194;2023-01-31T05:25:20;99847.92;;;30.63;21.95
35952;BME280;22035;51.406;16.194;2023-01-31T05:27:46;99850.88;;;30.78;21.81
35952;BME280;22035;51.406;16.194;2023-01-31T05:30:12;99850.32;;;31.15;21.45
35952;BME280;22035;51.406;16.194;2023-01-31T05:32:37;99858.44;;;31.32;21.31
35952;BME280;22035;51.406;16.194;2023-01-31T05:35:03;99860.82;;;31.60;21.04
35952;BME280;22035;51.406;16.194;2023-01-31T05:37:29;99867.41;;;31.70;20.95
35952;BME280;22035;51.406;16.194;2023-01-31T05:39:55;99867.38;;;31.76;20.67
35952;BME280;22035;51.406;16.194;2023-01-31T05:42:21;99873.39;;;31.84;20.60
35952;BME280;22035;51.406;16.194;2023-01-31T05:44:46;99874.62;;;31.88;20.58
35952;BME280;22035;51.406;16.194;2023-01-31T05:47:12;99878.20;;;31.84;20.62
35952;BME280;22035;51.406;16.194;2023-01-31T05:49:38;99878.21;;;31.86;20.65
35952;BME280;22035;51.406;16.194;2023-01-31T05:52:05;99883.78;;;32.05;20.51
35952;BME280;22035;51.406;16.194;2023-01-31T05:54:30;99880.72;;;32.10;20.40
35952;BME280;22035;51.406;16.194;2023-01-31T05:56:56;99883.02;;;32.05;20.28
35952;BME280;22035;51.406;16.194;2023-01-31T05:59:22;99886.81;;;32.14;20.32
35952;BME280;22035;51.406;16.194;2023-01-31T06:01:48;99890.54;;;32.31;20.24
35952;BME280;22035;51.406;16.194;2023-01-31T06:04:13;99881.35;;;32.45;20.21
35952;BME280;22035;51.406;16.194;2023-01-31T06:06:39;99883.14;;;32.57;20.29
35952;BME280;22035;51.406;16.194;2023-01-31T06:09:05;99879.05;;;32.43;19.60
35952;BME280;22035;51.406;16.194;2023-01-31T06:11:30;99889.96;;;32.50;19.29
35952;BME280;22035;51.406;16.194;2023-01-31T06:13:56;99895.24;;;32.55;19.18
35952;BME280;22035;51.406;16.194;2023-01-31T06:16:22;99893.64;;;32.60;19.23
35952;BME280;22035;51.406;16.194;2023-01-31T06:18:48;99893.68;;;32.61;19.24
35952;BME280;22035;51.406;16.194;2023-01-31T06:21:14;99895.45;;;32.64;19.22
35952;BME280;22035;51.406;16.194;2023-01-31T06:23:39;99899.39;;;32.70;19.19
35952;BME280;22035;51.406;16.194;2023-01-31T06:26:05;99901.73;;;32.58;19.30
35952;BME280;22035;51.406;16.194;2023-01-31T06:28:31;99895.43;;;32.55;19.34
35952;BME280;22035;51.406;16.194;2023-01-31T06:30:57;99903.37;;;32.63;19.32
35952;BME280;22035;51.406;16.194;2023-01-31T06:33:22;99902.09;;;32.63;19.37
35952;BME280;22035;51.406;16.194;2023-01-31T06:35:48;99900.49;;;32.60;19.34
35952;BME280;22035;51.406;16.194;2023-01-31T06:38:14;99910.23;;;32.59;19.36
35952;BME280;22035;51.406;16.194;2023-01-31T06:40:39;99903.99;;;32.56;19.40
35952;BME280;22035;51.406;16.194;2023-01-31T06:43:05;99914.90;;;32.42;19.54
35952;BME280;22035;51.406;16.194;2023-01-31T06:45:31;99920.09;;;32.35;19.60
35952;BME280;22035;51.406;16.194;2023-01-31T06:47:57;99925.28;;;32.22;19.74
35952;BME280;22035;51.406;16.194;2023-01-31T06:50:22;99925.96;;;32.20;19.83
35952;BME280;22035;51.406;16.194;2023-01-31T06:52:48;99933.45;;;32.10;19.94
35952;BME280;22035;51.406;16.194;2023-01-31T06:55:14;99938.44;;;32.26;19.68
35952;BME280;22035;51.406;16.194;2023-01-31T06:57:45;99939.78;;;32.37;19.61
35952;BME280;22035;51.406;16.194;2023-01-31T07:00:11;99942.20;;;32.20;19.77
35952;BME280;22035;51.406;16.194;2023-01-31T07:02:37;99938.76;;;32.20;19.75
35952;BME280;22035;51.406;16.194;2023-01-31T07:05:04;99945.99;;;32.20;19.71
35952;BME280;22035;51.406;16.194;2023-01-31T07:07:30;99947.87;;;32.24;19.72
35952;BME280;22035;51.406;16.194;2023-01-31T07:09:55;99953.76;;;32.06;19.85
35952;BME280;22035;51.406;16.194;2023-01-31T07:12:21;99952.91;;;32.09;19.81
35952;BME280;22035;51.406;16.194;2023-01-31T07:14:47;99959.56;;;32.26;19.68
35952;BME280;22035;51.406;16.194;2023-01-31T07:17:12;99957.89;;;32.11;19.79
35952;BME280;22035;51.406;16.194;2023-01-31T07:19:38;99953.18;;;32.23;19.65
35952;BME280;22035;51.406;16.194;2023-01-31T07:22:04;99950.94;;;32.18;19.69
35952;BME280;22035;51.406;16.194;2023-01-31T07:24:29;99960.30;;;32.35;19.55
35952;BME280;22035;51.406;16.194;2023-01-31T07:26:55;99968.60;;;32.33;19.52
35952;BME280;22035;51.406;16.194;2023-01-31T07:29:20;99972.53;;;32.45;19.36
35952;BME280;22035;51.406;16.194;2023-01-31T07:31:46;99975.18;;;32.49;19.34
35952;BME280;22035;51.406;16.194;2023-01-31T07:34:12;99974.88;;;32.49;19.34
35952;BME280;22035;51.406;16.194;2023-01-31T07:36:38;99972.92;;;32.53;19.33
35952;BME280;22035;51.406;16.194;2023-01-31T07:39:03;99974.55;;;32.52;19.30
35952;BME280;22035;51.406;16.194;2023-01-31T07:41:29;99975.91;;;32.61;19.21
35952;BME280;22035;51.406;16.194;2023-01-31T07:43:55;99974.25;;;32.66;19.07
35952;BME280;22035;51.406;16.194;2023-01-31T07:46:20;99971.92;;;32.58;19.26
35952;BME280;22035;51.406;16.194;2023-01-31T07:48:46;99972.60;;;32.68;19.13
35952;BME280;22035;51.406;16.194;2023-01-31T07:51:12;99970.31;;;32.50;19.32
35952;BME280;22035;51.406;16.194;2023-01-31T07:53:39;99964.56;;;32.65;19.18
35952;BME280;22035;51.406;16.194;2023-01-31T07:56:06;99969.13;;;32.75;19.07
35952;BME280;22035;51.406;16.194;2023-01-31T07:58:33;99970.19;;;32.69;19.17
35952;BME280;22035;51.406;16.194;2023-01-31T08:00:59;99969.68;;;32.57;19.31
35952;BME280;22035;51.406;16.194;2023-01-31T08:03:26;99968.31;;;32.63;19.23
35952;BME280;22035;51.406;16.194;2023-01-31T08:05:52;99980.59;;;32.62;19.19
35952;BME280;22035;51.406;16.194;2023-01-31T08:08:18;99980.54;;;32.74;19.10
35952;BME280;22035;51.406;16.194;2023-01-31T08:10:43;99988.45;;;32.62;19.24
35952;BME280;22035;51.406;16.194;2023-01-31T08:13:09;99984.45;;;32.67;19.23
35952;BME280;22035;51.406;16.194;2023-01-31T08:15:35;99987.45;;;32.62;19.32
35952;BME280;22035;51.406;16.194;2023-01-31T08:18:00;99982.33;;;32.72;19.20
35952;BME280;22035;51.406;16.194;2023-01-31T08:20:26;99989.01;;;32.66;19.26
35952;BME280;22035;51.406;16.194;2023-01-31T08:22:52;99987.76;;;32.64;19.27
35952;BME280;22035;51.406;16.194;2023-01-31T08:25:18;99991.06;;;32.58;19.34
35952;BME280;22035;51.406;16.194;2023-01-31T08:27:43;99990.05;;;32.69;19.25
35952;BME280;22035;51.406;16.194;2023-01-31T08:30:10;99997.32;;;32.62;19.31
35952;BME280;22035;51.406;16.194;2023-01-31T08:32:36;99994.38;;;32.66;19.22
35952;BME280;22035;51.406;16.194;2023-01-31T08:35:02;100004.78;;;32.71;19.17
35952;BME280;22035;51.406;16.194;2023-01-31T08:37:27;100008.78;;;32.75;19.16
35952;BME280;22035;51.406;16.194;2023-01-31T08:39:53;100014.67;;;32.75;19.14
35952;BME280;22035;51.406;16.194;2023-01-31T08:42:19;100010.31;;;32.57;19.30
35952;BME280;22035;51.406;16.194;2023-01-31T08:44:44;100008.50;;;32.75;19.10
35952;BME280;22035;51.406;16.194;2023-01-31T08:47:10;100007.61;;;32.74;19.09
35952;BME280;22035;51.406;16.194;2023-01-31T08:49:36;100006.06;;;32.70;19.14
35952;BME280;22035;51.406;16.194;2023-01-31T08:52:02;100010.01;;;32.78;19.01
35952;BME280;22035;51.406;16.194;2023-01-31T08:54:27;100007.42;;;32.71;19.11
35952;BME280;22035;51.406;16.194;2023-01-31T08:56:53;100008.36;;;32.66;19.20
35952;BME280;22035;51.406;16.194;2023-01-31T08:59:19;100017.68;;;32.84;19.01
35952;BME280;22035;51.406;16.194;2023-01-31T09:01:44;100018.37;;;32.67;19.13
35952;BME280;22035;51.406;16.194;2023-01-31T09:04:10;100011.59;;;32.80;19.06
35952;BME280;22035;51.406;16.194;2023-01-31T09:06:36;100014.25;;;32.73;19.09
35952;BME280;22035;51.406;16.194;2023-01-31T09:09:02;100011.21;;;32.73;19.05
35952;BME280;22035;51.406;16.194;2023-01-31T09:11:28;99999.92;;;32.79;18.96
35952;BME280;22035;51.406;16.194;2023-01-31T09:13:55;100012.64;;;32.72;19.05
35952;BME280;22035;51.406;16.194;2023-01-31T09:16:20;100010.13;;;32.81;18.99
35952;BME280;22035;51.406;16.194;2023-01-31T09:18:46;100019.22;;;32.67;19.11
35952;BME280;22035;51.406;16.194;2023-01-31T09:21:14;100014.44;;;32.74;19.04
35952;BME280;22035;51.406;16.194;2023-01-31T09:23:40;100018.62;;;32.70;19.07
35952;BME280;22035;51.406;16.194;2023-01-31T09:26:06;100020.23;;;32.66;19.16
35952;BME280;22035;51.406;16.194;2023-01-31T09:28:32;100018.76;;;32.88;18.88
35952;BME280;22035;51.406;16.194;2023-01-31T09:31:02;100023.24;;;32.74;18.99
35952;BME280;22035;51.406;16.194;2023-01-31T09:33:30;100027.64;;;32.68;19.04
35952;BME280;22035;51.406;16.194;2023-01-31T09:35:56;100023.87;;;32.77;18.96
35952;BME280;22035;51.406;16.194;2023-01-31T09:38:22;100013.64;;;32.78;18.94
35952;BME280;22035;51.406;16.194;2023-01-31T09:40:48;100006.47;;;32.84;18.90
35952;BME280;22035;51.406;16.194;2023-01-31T09:43:15;100007.68;;;32.63;19.10
35952;BME280;22035;51.406;16.194;2023-01-31T09:45:43;100006.89;;;32.68;19.09
35952;BME280;22035;51.406;16.194;2023-01-31T09:48:16;100009.66;;;32.86;18.90
35952;BME280;22035;51.406;16.194;2023-01-31T09:50:45;100010.98;;;32.74;19.04
35952;BME280;22035;51.406;16.194;2023-01-31T09:53:13;100009.05;;;32.76;19.01
35952;BME280;22035;51.406;16.194;2023-01-31T09:55:42;100012.81;;;32.62;19.21
35952;BME280;22035;51.406;16.194;2023-01-31T09:58:18;100015.80;;;32.76;19.05
35952;BME280;22035;51.406;16.194;2023-01-31T10:00:51;100015.77;;;32.94;18.89
35952;BME280;22035;51.406;16.194;2023-01-31T10:03:27;100014.61;;;32.80;19.03
35952;BME280;22035;51.406;16.194;2023-01-31T10:06:01;100009.36;;;32.74;19.11
35952;BME280;22035;51.406;16.194;2023-01-31T10:08:39;100011.72;;;32.64;19.15
35952;BME280;22035;51.406;16.194;2023-01-31T10:11:11;100007.02;;;32.67;19.11
35952;BME280;22035;51.406;16.194;2023-01-31T10:13:45;100002.52;;;32.69;19.08
35952;BME280;22035;51.406;16.194;2023-01-31T10:16:19;99993.97;;;32.75;19.01
35952;BME280;22035;51.406;16.194;2023-01-31T10:18:49;99993.01;;;32.81;18.93
35952;BME280;22035;51.406;16.194;2023-01-31T10:21:20;99999.48;;;32.81;18.94
35952;BME280;22035;51.406;16.194;2023-01-31T10:23:51;99993.11;;;32.84;18.89
35952;BME280;22035;51.406;16.194;2023-01-31T10:26:23;99999.36;;;32.82;18.89
35952;BME280;22035;51.406;16.194;2023-01-31T10:28:54;100000.57;;;32.89;18.82
35952;BME280;22035;51.406;16.194;2023-01-31T10:31:28;99998.80;;;32.85;18.85
35952;BME280;22035;51.406;16.194;2023-01-31T10:33:59;99987.00;;;32.77;18.92
35952;BME280;22035;51.406;16.194;2023-01-31T10:36:30;99994.76;;;32.79;18.94
35952;BME280;22035;51.406;16.194;2023-01-31T10:39:02;99987.88;;;32.76;18.93
35952;BME280;22035;51.406;16.194;2023-01-31T10:41:38;99985.27;;;32.88;18.83
35952;BME280;22035;51.406;16.194;2023-01-31T10:44:09;99985.76;;;32.72;18.99
35952;BME280;22035;51.406;16.194;2023-01-31T10:46:37;99980.70;;;32.91;18.83
35952;BME280;22035;51.406;16.194;2023-01-31T10:49:03;99982.07;;;32.83;18.90
35952;BME280;22035;51.406;16.194;2023-01-31T10:51:41;99974.77;;;32.87;18.87
35952;BME280;22035;51.406;16.194;2023-01-31T10:54:19;99974.02;;;32.80;18.97
35952;BME280;22035;51.406;16.194;2023-01-31T10:56:49;99976.28;;;32.89;18.88
35952;BME280;22035;51.406;16.194;2023-01-31T10:59:20;99981.17;;;32.81;18.94
35952;BME280;22035;51.406;16.194;2023-01-31T11:01:47;99971.90;;;32.89;18.86
35952;BME280;22035;51.406;16.194;2023-01-31T11:04:22;99983.43;;;32.79;18.91
35952;BME280;22035;51.406;16.194;2023-01-31T11:06:49;99982.47;;;32.81;18.91
35952;BME280;22035;51.406;16.194;2023-01-31T11:09:15;99978.59;;;32.83;18.86
35952;BME280;22035;51.406;16.194;2023-01-31T11:11:52;99978.02;;;32.91;18.80
35952;BME280;22035;51.406;16.194;2023-01-31T11:14:18;99973.54;;;32.85;18.89
35952;BME280;22035;51.406;16.194;2023-01-31T11:16:44;99974.99;;;32.74;19.02
35952;BME280;22035;51.406;16.194;2023-01-31T11:19:17;99969.35;;;32.77;18.98
35952;BME280;22035;51.406;16.194;2023-01-31T11:21:48;99965.12;;;32.80;18.92
35952;BME280;22035;51.406;16.194;2023-01-31T11:24:18;99960.10;;;32.95;18.79
35952;BME280;22035;51.406;16.194;2023-01-31T11:26:51;99953.90;;;32.91;18.85
35952;BME280;22035;51.406;16.194;2023-01-31T11:29:21;99947.31;;;32.84;18.89
35952;BME280;22035;51.406;16.194;2023-01-31T11:31:49;99942.42;;;32.72;19.06
35952;BME280;22035;51.406;16.194;2023-01-31T11:34:21;99930.64;;;32.95;18.80
35952;BME280;22035;51.406;16.194;2023-01-31T11:36:47;99930.11;;;32.93;18.81
35952;BME280;22035;51.406;16.194;2023-01-31T11:39:25;99922.39;;;32.93;18.86
35952;BME280;22035;51.406;16.194;2023-01-31T11:41:52;99924.23;;;32.89;18.91
35952;BME280;22035;51.406;16.194;2023-01-31T11:44:19;99920.94;;;32.87;18.94
35952;BME280;22035;51.406;16.194;2023-01-31T11:46:50;99917.18;;;32.86;18.96
35952;BME280;22035;51.406;16.194;2023-01-31T11:49:22;99911.54;;;32.85;18.95
35952;BME280;22035;51.406;16.194;2023-01-31T11:51:49;99910.36;;;32.96;18.92
35952;BME280;22035;51.406;16.194;2023-01-31T11:54:18;99909.47;;;32.84;18.96
35952;BME280;22035;51.406;16.194;2023-01-31T11:56:46;99903.53;;;32.92;18.89
35952;BME280;22035;51.406;16.194;2023-01-31T11:59:16;99894.37;;;32.98;18.83
35952;BME280;22035;51.406;16.194;2023-01-31T12:01:45;99891.85;;;32.90;18.93
35952;BME280;22035;51.406;16.194;2023-01-31T12:04:16;99893.11;;;32.93;18.88
35952;BME280;22035;51.406;16.194;2023-01-31T12:06:54;99887.38;;;32.91;18.89
35952;BME280;22035;51.406;16.194;2023-01-31T12:09:22;99891.61;;;32.95;18.86
35952;BME280;22035;51.406;16.194;2023-01-31T12:11:50;99889.26;;;33.02;18.81
35952;BME280;22035;51.406;16.194;2023-01-31T12:14:17;99881.25;;;32.97;18.85
35952;BME280;22035;51.406;16.194;2023-01-31T12:16:43;99875.33;;;32.86;18.93
35952;BME280;22035;51.406;16.194;2023-01-31T12:19:22;99872.07;;;32.88;18.95
35952;BME280;22035;51.406;16.194;2023-01-31T12:22:00;99867.88;;;32.96;18.85
35952;BME280;22035;51.406;16.194;2023-01-31T12:24:35;99864.77;;;32.91;18.88
35952;BME280;22035;51.406;16.194;2023-01-31T12:27:10;99866.21;;;32.87;18.92
35952;BME280;22035;51.406;16.194;2023-01-31T12:29:55;99857.83;;;32.93;18.87
35952;BME280;22035;51.406;16.194;2023-01-31T12:32:38;99846.29;;;32.90;18.91
35952;BME280;22035;51.406;16.194;2023-01-31T12:35:18;99841.33;;;32.85;18.96
35952;BME280;22035;51.406;16.194;2023-01-31T12:37:54;99837.71;;;32.83;18.99
35952;BME280;22035;51.406;16.194;2023-01-31T12:40:35;99835.90;;;32.94;18.90
35952;BME280;22035;51.406;16.194;2023-01-31T12:43:04;99836.85;;;32.99;18.86
35952;BME280;22035;51.406;16.194;2023-01-31T12:45:50;99830.24;;;33.02;18.84
35952;BME280;22035;51.406;16.194;2023-01-31T12:49:40;99821.08;;;32.78;19.08
35952;BME280;22035;51.406;16.194;2023-01-31T12:52:16;99814.49;;;32.84;19.02
35952;BME280;22035;51.406;16.194;2023-01-31T12:54:52;99813.57;;;32.87;18.97
35952;BME280;22035;51.406;16.194;2023-01-31T12:57:29;99809.01;;;32.87;18.96